Weather at Trevet Airfield [CLOSED]

Public forecast

Using degrees Celsius for public forecast. Weather courtesy of forecast.io.

Closest aviation weather report (METAR) to Trevet Airfield

Closest report is Dublin Airport, 11.9 nm (22.0 km) SE.

2024/05/26 19:00 (retrieved 25 minutes ago)

EIDW 261900Z 23005KT 170V310 9999 -RA FEW010 FEW020CB BKN045 11/10 Q1008 RERA NOSIG

Closest aviation forecast (TAF) to Trevet Airfield

Closest forecast is Dublin Airport, 11.9 nm (22.0 km) SE.

2024/05/26 18:11 (retrieved 1 hour ago)

TAF EIDW 261700Z 2618/2718 25008KT 9999 FEW008 BKN050 TEMPO 2618/2620 -SHRA FEW018CB PROB30 TEMPO 2618/2619 4000 SHRA SCT018CB BECMG 2716/2718 21007KT PROB40 TEMPO 2715/2718 -SHRA FEW022CB